Time,TemperatureF,DewpointF,PressureIn,WindDirection,WindDirectionDegrees,WindSpeedMPH,WindSpeedGustMPH,Humidity,HourlyPrecipIn,Conditions,Clouds,dailyrainin,SoftwareType,DateUTC
2013-01-21 00:00:00,27.4,16.1,29.78,WSW,240,1.0,7.0,62,0.00,,CLR,0.00,VWS V14.00,2013-01-21 05:00:00,
2013-01-21 00:01:00,27.3,16.0,29.79,NNW,328,1.0,7.0,62,0.00,,CLR,0.00,VWS V14.00,2013-01-21 05:01:00,
2013-01-21 00:07:00,27.1,16.2,29.79,WSW,254,5.0,11.0,63,0.00,,CLR,0.00,VWS V14.00,2013-01-21 05:07:00,
2013-01-21 00:12:00,26.8,16.6,29.79,West,263,1.0,11.0,65,0.00,,CLR,0.00,VWS V14.00,2013-01-21 05:12:00,
2013-01-21 00:17:00,26.6,16.4,29.79,SSW,210,3.0,11.0,65,0.00,,CLR,0.00,VWS V14.00,2013-01-21 05:17:00,
2013-01-21 00:22:00,26.5,16.3,29.80,NW,309,3.0,11.0,65,0.00,,CLR,0.00,VWS V14.00,2013-01-21 05:22:00,
2013-01-21 00:27:00,26.3,16.1,29.80,WNW,292,3.0,11.0,65,0.00,,CLR,0.00,VWS V14.00,2013-01-21 05:27:00,
2013-01-21 00:32:00,26.2,15.7,29.80,WNW,299,3.0,7.0,64,0.00,,CLR,0.00,VWS V14.00,2013-01-21 05:32:00,
2013-01-21 00:37:00,26.0,15.1,29.80,East,79,0.0,9.0,63,0.00,,CLR,0.00,VWS V14.00,2013-01-21 05:37:00,
2013-01-21 00:42:00,25.8,15.3,29.80,WNW,302,2.0,10.0,64,0.00,,CLR,0.00,VWS V14.00,2013-01-21 05:42:00,
2013-01-21 00:47:00,25.4,15.3,29.80,WSW,241,0.0,12.0,65,0.00,,CLR,0.00,VWS V14.00,2013-01-21 05:47:00,
2013-01-21 00:52:00,25.2,15.8,29.81,West,277,7.0,12.0,67,0.00,,CLR,0.00,VWS V14.00,2013-01-21 05:52:00,
2013-01-21 00:57:00,24.8,16.4,29.81,WSW,248,6.0,13.0,70,0.00,,CLR,0.00,VWS V14.00,2013-01-21 05:57:00,
2013-01-21 01:02:00,24.5,16.5,29.81,WNW,286,2.0,8.0,71,0.00,,CLR,0.00,VWS V14.00,2013-01-21 06:02:00,
2013-01-21 01:07:00,24.2,16.2,29.82,SW,236,3.0,8.0,71,0.00,,CLR,0.00,VWS V14.00,2013-01-21 06:07:00,
2013-01-21 01:12:00,23.9,14.9,29.82,WSW,246,0.0,8.0,68,0.00,,CLR,0.00,VWS V14.00,2013-01-21 06:12:00,
2013-01-21 01:17:00,23.7,14.0,29.82,NNE,30,1.0,8.0,66,0.00,,CLR,0.00,VWS V14.00,2013-01-21 06:17:00,
2013-01-21 01:22:00,23.5,13.5,29.83,NW,323,3.0,8.0,65,0.00,,CLR,0.00,VWS V14.00,2013-01-21 06:22:00,
2013-01-21 01:27:00,23.4,12.7,29.83,NNE,24,2.0,8.0,63,0.00,,CLR,0.00,VWS V14.00,2013-01-21 06:27:00,
2013-01-21 01:32:00,23.2,12.1,29.84,NNW,331,3.0,6.0,62,0.00,,CLR,0.00,VWS V14.00,2013-01-21 06:32:00,
2013-01-21 01:37:00,23.0,11.6,29.84,West,271,7.0,9.0,61,0.00,,CLR,0.00,VWS V14.00,2013-01-21 06:37:00,
2013-01-21 01:42:00,22.8,11.0,29.84,ENE,63,1.0,9.0,60,0.00,,CLR,0.00,VWS V14.00,2013-01-21 06:42:00,
2013-01-21 01:47:00,22.5,10.7,29.85,NNW,346,3.0,9.0,60,0.00,,CLR,0.00,VWS V14.00,2013-01-21 06:47:00,
2013-01-21 01:52:00,22.3,10.5,29.85,NW,325,0.0,9.0,60,0.00,,CLR,0.00,VWS V14.00,2013-01-21 06:52:00,
2013-01-21 01:57:00,22.1,10.0,29.85,WNW,284,3.0,13.0,59,0.00,,CLR,0.00,VWS V14.00,2013-01-21 06:57:00,
2013-01-21 02:02:00,21.8,9.7,29.86,NW,325,2.0,6.0,59,0.00,,CLR,0.00,VWS V14.00,2013-01-21 07:02:00,
2013-01-21 02:07:00,21.6,9.5,29.86,NNE,27,3.0,9.0,59,0.00,,CLR,0.00,VWS V14.00,2013-01-21 07:07:00,
2013-01-21 02:12:00,21.3,9.2,29.86,NW,308,2.0,9.0,59,0.00,,CLR,0.00,VWS V14.00,2013-01-21 07:12:00,
2013-01-21 02:17:00,21.1,9.0,29.86,West,278,5.0,9.0,59,0.00,,CLR,0.00,VWS V14.00,2013-01-21 07:17:00,
2013-01-21 02:22:00,20.9,8.8,29.86,SW,221,3.0,10.0,59,0.00,,CLR,0.00,VWS V14.00,2013-01-21 07:22:00,
2013-01-21 02:27:00,20.8,8.8,29.87,West,267,5.0,10.0,59,0.00,,CLR,0.00,VWS V14.00,2013-01-21 07:27:00,
2013-01-21 02:32:00,20.6,8.6,29.87,West,271,11.0,11.0,59,0.00,,CLR,0.00,VWS V14.00,2013-01-21 07:32:00,
2013-01-21 02:37:00,20.6,8.6,29.87,SE,140,3.0,11.0,59,0.00,,CLR,0.00,VWS V14.00,2013-01-21 07:37:00,
2013-01-21 02:42:00,20.4,8.4,29.87,WNW,290,2.0,11.0,59,0.00,,CLR,0.00,VWS V14.00,2013-01-21 07:42:00,
2013-01-21 02:47:00,20.3,8.3,29.87,WNW,293,0.0,11.0,59,0.00,,CLR,0.00,VWS V14.00,2013-01-21 07:47:00,
2013-01-21 02:52:00,20.1,8.1,29.87,West,275,1.0,11.0,59,0.00,,CLR,0.00,VWS V14.00,2013-01-21 07:52:00,
2013-01-21 02:57:00,20.0,7.6,29.88,West,259,2.0,11.0,58,0.00,,CLR,0.00,VWS V14.00,2013-01-21 07:57:00,
2013-01-21 03:02:00,20.0,7.6,29.88,WNW,297,9.0,9.0,58,0.00,,CLR,0.00,VWS V14.00,2013-01-21 08:02:00,
2013-01-21 03:07:00,19.9,7.5,29.88,WSW,256,5.0,9.0,58,0.00,,CLR,0.00,VWS V14.00,2013-01-21 08:07:00,
2013-01-21 03:12:00,19.8,7.4,29.88,WNW,303,5.0,10.0,58,0.00,,CLR,0.00,VWS V14.00,2013-01-21 08:12:00,
2013-01-21 03:17:00,19.7,7.3,29.88,SW,217,0.0,10.0,58,0.00,,CLR,0.00,VWS V14.00,2013-01-21 08:17:00,
2013-01-21 03:22:00,19.5,7.1,29.89,WSW,246,0.0,10.0,58,0.00,,CLR,0.00,VWS V14.00,2013-01-21 08:22:00,
2013-01-21 03:27:00,19.4,6.7,29.89,WNW,292,1.0,10.0,57,0.00,,CLR,0.00,VWS V14.00,2013-01-21 08:27:00,
2013-01-21 03:32:00,19.4,6.7,29.89,West,271,1.0,8.0,57,0.00,,CLR,0.00,VWS V14.00,2013-01-21 08:32:00,
2013-01-21 03:37:00,19.3,6.2,29.89,ESE,106,2.0,8.0,56,0.00,,CLR,0.00,VWS V14.00,2013-01-21 08:37:00,
2013-01-21 03:42:00,19.2,5.7,29.89,West,259,1.0,8.0,55,0.00,,CLR,0.00,VWS V14.00,2013-01-21 08:42:00,
2013-01-21 03:47:00,19.2,5.7,29.90,NNW,333,1.0,8.0,55,0.00,,CLR,0.00,VWS V14.00,2013-01-21 08:47:00,
2013-01-21 03:52:00,19.3,5.0,29.90,West,271,3.0,13.0,53,0.00,,CLR,0.00,VWS V14.00,2013-01-21 08:52:00,
2013-01-21 03:57:00,19.3,4.6,29.90,West,281,5.0,7.0,52,0.00,,CLR,0.00,VWS V14.00,2013-01-21 08:57:00,
2013-01-21 04:02:00,19.3,4.1,29.91,West,267,0.0,12.0,51,0.00,,CLR,0.00,VWS V14.00,2013-01-21 09:02:00,
2013-01-21 04:07:00,19.2,3.6,29.91,NNE,26,3.0,12.0,50,0.00,,CLR,0.00,VWS V14.00,2013-01-21 09:07:00,
2013-01-21 04:12:00,19.2,3.2,29.91,WNW,298,7.0,12.0,49,0.00,,CLR,0.00,VWS V14.00,2013-01-21 09:12:00,
2013-01-21 04:17:00,19.1,2.7,29.91,North,355,0.0,12.0,48,0.00,,CLR,0.00,VWS V14.00,2013-01-21 09:17:00,
2013-01-21 04:22:00,19.1,2.7,29.91,SW,227,4.0,12.0,48,0.00,,CLR,0.00,VWS V14.00,2013-01-21 09:22:00,
2013-01-21 04:27:00,19.0,2.6,29.91,SW,232,10.0,10.0,48,0.00,,CLR,0.00,VWS V14.00,2013-01-21 09:27:00,
2013-01-21 04:32:00,18.9,2.0,29.91,WNW,289,4.0,12.0,47,0.00,,CLR,0.00,VWS V14.00,2013-01-21 09:32:00,
2013-01-21 04:37:00,18.9,2.0,29.91,SSW,213,6.0,13.0,47,0.00,,CLR,0.00,VWS V14.00,2013-01-21 09:37:00,
2013-01-21 04:42:00,18.8,1.9,29.90,WNW,290,9.0,13.0,47,0.00,,CLR,0.00,VWS V14.00,2013-01-21 09:42:00,
2013-01-21 04:47:00,18.8,1.9,29.91,WNW,300,2.0,13.0,47,0.00,,CLR,0.00,VWS V14.00,2013-01-21 09:47:00,
2013-01-21 04:52:00,18.7,1.8,29.91,NW,321,1.0,13.0,47,0.00,,CLR,0.00,VWS V14.00,2013-01-21 09:52:00,
2013-01-21 04:57:00,18.5,2.1,29.92,NNW,346,4.0,4.0,48,0.00,,CLR,0.00,VWS V14.00,2013-01-21 09:57:00,
2013-01-21 05:02:00,18.5,2.1,29.92,WNW,302,0.0,6.0,48,0.00,,CLR,0.00,VWS V14.00,2013-01-21 10:02:00,
2013-01-21 05:07:00,18.4,2.9,29.93,ENE,64,3.0,6.0,50,0.00,,CLR,0.00,VWS V14.00,2013-01-21 10:07:00,
2013-01-21 05:12:00,18.2,3.1,29.93,ENE,77,3.0,6.0,51,0.00,,CLR,0.00,VWS V14.00,2013-01-21 10:12:00,
2013-01-21 05:17:00,17.9,3.7,29.94,ENE,71,0.0,6.0,53,0.00,,CLR,0.00,VWS V14.00,2013-01-21 10:17:00,
2013-01-21 05:22:00,17.6,3.4,29.94,East,90,0.0,6.0,53,0.00,,CLR,0.00,VWS V14.00,2013-01-21 10:22:00,
2013-01-21 05:28:00,17.4,3.2,29.94,East,90,2.0,2.0,53,0.00,,CLR,0.00,VWS V14.00,2013-01-21 10:28:00,
2013-01-21 05:33:00,17.2,3.0,29.94,WSW,240,1.0,3.0,53,0.00,,CLR,0.00,VWS V14.00,2013-01-21 10:33:00,
2013-01-21 05:38:00,17.0,2.8,29.94,West,279,1.0,6.0,53,0.00,,CLR,0.00,VWS V14.00,2013-01-21 10:38:00,
2013-01-21 05:43:00,16.8,3.0,29.93,West,274,4.0,6.0,54,0.00,,CLR,0.00,VWS V14.00,2013-01-21 10:43:00,
2013-01-21 05:48:00,16.7,3.0,29.94,West,265,1.0,6.0,54,0.00,,CLR,0.00,VWS V14.00,2013-01-21 10:48:00,
2013-01-21 05:53:00,16.6,2.9,29.94,SW,228,0.0,6.0,54,0.00,,CLR,0.00,VWS V14.00,2013-01-21 10:53:00,
2013-01-21 05:58:00,16.4,2.7,29.94,WNW,296,1.0,1.0,54,0.00,,CLR,0.00,VWS V14.00,2013-01-21 10:58:00,
2013-01-21 06:03:00,16.3,2.6,29.95,North,5,0.0,4.0,54,0.00,,CLR,0.00,VWS V14.00,2013-01-21 11:03:00,
2013-01-21 06:08:00,16.2,2.5,29.95,North,5,0.0,4.0,54,0.00,,CLR,0.00,VWS V14.00,2013-01-21 11:08:00,
2013-01-21 06:13:00,16.1,2.4,29.95,North,5,0.0,4.0,54,0.00,,CLR,0.00,VWS V14.00,2013-01-21 11:13:00,
2013-01-21 06:18:00,15.9,2.2,29.95,WNW,292,1.0,4.0,54,0.00,,CLR,0.00,VWS V14.00,2013-01-21 11:18:00,
2013-01-21 06:23:00,15.8,2.5,29.95,WNW,292,2.0,4.0,55,0.00,,CLR,0.00,VWS V14.00,2013-01-21 11:23:00,
2013-01-21 06:28:00,15.7,2.4,29.96,SW,230,1.0,4.0,55,0.00,,CLR,0.00,VWS V14.00,2013-01-21 11:28:00,
2013-01-21 06:33:00,15.6,2.3,29.96,SW,231,3.0,4.0,55,0.00,,CLR,0.00,VWS V14.00,2013-01-21 11:33:00,
2013-01-21 06:38:00,15.5,2.2,29.96,West,267,2.0,4.0,55,0.00,,CLR,0.00,VWS V14.00,2013-01-21 11:38:00,
2013-01-21 06:43:00,15.4,2.1,29.96,West,275,0.0,6.0,55,0.00,,CLR,0.00,VWS V14.00,2013-01-21 11:43:00,
2013-01-21 06:48:00,15.3,2.0,29.95,WSW,246,1.0,6.0,55,0.00,,CLR,0.00,VWS V14.00,2013-01-21 11:48:00,
2013-01-21 06:53:00,15.2,2.0,29.96,West,261,0.0,6.0,55,0.00,,CLR,0.00,VWS V14.00,2013-01-21 11:53:00,
2013-01-21 06:58:00,15.1,2.2,29.96,West,261,1.0,1.0,56,0.00,,CLR,0.00,VWS V14.00,2013-01-21 11:58:00,
2013-01-21 07:03:00,15.0,2.1,29.96,West,265,0.0,2.0,56,0.00,,FEW250,0.00,VWS V14.00,2013-01-21 12:03:00,
2013-01-21 07:08:00,14.9,2.0,29.97,West,273,2.0,2.0,56,0.00,,FEW250,0.00,VWS V14.00,2013-01-21 12:08:00,
2013-01-21 07:13:00,14.8,2.0,29.97,WNW,293,0.0,3.0,56,0.00,,FEW250,0.00,VWS V14.00,2013-01-21 12:13:00,
2013-01-21 07:18:00,14.8,2.0,29.97,WNW,293,0.0,3.0,56,0.00,,FEW250,0.00,VWS V14.00,2013-01-21 12:18:00,
2013-01-21 07:23:00,14.7,2.2,29.97,WNW,293,0.0,3.0,57,0.00,,FEW250,0.00,VWS V14.00,2013-01-21 12:23:00,
2013-01-21 07:28:00,14.6,2.2,29.97,WNW,293,0.0,0.0,57,0.00,,FEW250,0.00,VWS V14.00,2013-01-21 12:28:00,
2013-01-21 07:33:00,14.6,2.5,29.98,WNW,293,0.0,0.0,58,0.00,,FEW250,0.00,VWS V14.00,2013-01-21 12:33:00,
2013-01-21 07:38:00,14.5,2.4,29.98,WNW,293,0.0,1.0,58,0.00,,FEW250,0.00,VWS V14.00,2013-01-21 12:38:00,
2013-01-21 07:43:00,14.7,3.0,29.98,WNW,293,1.0,2.0,59,0.00,,FEW250,0.00,VWS V14.00,2013-01-21 12:43:00,
2013-01-21 07:48:00,15.1,3.0,29.98,WNW,293,0.0,2.0,58,0.00,,FEW250,0.00,VWS V14.00,2013-01-21 12:48:00,
2013-01-21 07:53:00,15.4,3.3,29.98,WNW,293,0.0,2.0,58,0.00,,FEW250,0.00,VWS V14.00,2013-01-21 12:53:00,
2013-01-21 07:58:00,15.6,3.1,29.98,West,274,0.0,1.0,57,0.00,,FEW250,0.00,VWS V14.00,2013-01-21 12:58:00,
2013-01-21 08:03:00,15.9,3.0,29.99,West,275,0.0,3.0,56,0.00,,CLR,0.00,VWS V14.00,2013-01-21 13:03:00,
2013-01-21 08:08:00,15.8,2.9,29.99,West,259,3.0,4.0,56,0.00,,CLR,0.00,VWS V14.00,2013-01-21 13:08:00,
2013-01-21 08:13:00,16.0,2.7,29.98,SW,227,2.0,5.0,55,0.00,,CLR,0.00,VWS V14.00,2013-01-21 13:13:00,
2013-01-21 08:18:00,16.1,2.8,29.99,NW,319,2.0,5.0,55,0.00,,CLR,0.00,VWS V14.00,2013-01-21 13:18:00,
2013-01-21 08:23:00,16.4,2.7,29.99,West,279,4.0,5.0,54,0.00,,CLR,0.00,VWS V14.00,2013-01-21 13:23:00,
2013-01-21 08:28:00,16.7,2.1,29.99,West,262,3.0,4.0,52,0.00,,CLR,0.00,VWS V14.00,2013-01-21 13:28:00,
2013-01-21 08:33:00,17.0,2.4,29.99,West,269,4.0,7.0,52,0.00,,CLR,0.00,VWS V14.00,2013-01-21 13:33:00,
2013-01-21 08:38:00,17.0,2.4,30.00,WSW,254,6.0,7.0,52,0.00,,CLR,0.00,VWS V14.00,2013-01-21 13:38:00,
2013-01-21 08:43:00,17.3,2.3,30.00,West,270,1.0,7.0,51,0.00,,CLR,0.00,VWS V14.00,2013-01-21 13:43:00,
2013-01-21 08:48:00,17.1,1.7,30.00,NNE,27,2.0,7.0,50,0.00,,CLR,0.00,VWS V14.00,2013-01-21 13:48:00,
2013-01-21 08:53:00,17.9,2.8,30.01,WSW,256,1.0,7.0,51,0.00,,CLR,0.00,VWS V14.00,2013-01-21 13:53:00,
2013-01-21 08:58:00,17.7,2.2,30.01,SSW,212,2.0,3.0,50,0.00,,CLR,0.00,VWS V14.00,2013-01-21 13:58:00,
2013-01-21 09:03:00,17.7,1.8,30.01,West,279,1.0,5.0,49,0.00,,CLR,0.00,VWS V14.00,2013-01-21 14:03:00,
2013-01-21 09:08:00,18.0,2.1,30.01,WSW,257,5.0,8.0,49,0.00,,CLR,0.00,VWS V14.00,2013-01-21 14:08:00,
2013-01-21 09:13:00,18.4,2.9,30.01,West,269,3.0,8.0,50,0.00,,CLR,0.00,VWS V14.00,2013-01-21 14:13:00,
2013-01-21 09:18:00,18.4,2.0,30.01,SSW,194,1.0,8.0,48,0.00,,CLR,0.00,VWS V14.00,2013-01-21 14:18:00,
2013-01-21 09:23:00,18.4,2.0,30.01,West,266,4.0,8.0,48,0.00,,CLR,0.00,VWS V14.00,2013-01-21 14:23:00,
2013-01-21 09:28:00,18.8,1.9,30.01,WSW,256,2.0,2.0,47,0.00,,CLR,0.00,VWS V14.00,2013-01-21 14:28:00,
2013-01-21 09:33:00,19.3,2.4,30.01,NW,322,4.0,8.0,47,0.00,,CLR,0.00,VWS V14.00,2013-01-21 14:33:00,
2013-01-21 09:38:00,19.1,1.7,30.01,West,273,4.0,8.0,46,0.00,,CLR,0.00,VWS V14.00,2013-01-21 14:38:00,
2013-01-21 09:43:00,19.3,2.4,30.01,WSW,254,6.0,8.0,47,0.00,,CLR,0.00,VWS V14.00,2013-01-21 14:43:00,
2013-01-21 09:48:00,19.6,2.7,30.01,WNW,286,2.0,9.0,47,0.00,,CLR,0.00,VWS V14.00,2013-01-21 14:48:00,
2013-01-21 09:53:00,19.8,2.4,30.01,NW,306,3.0,10.0,46,0.00,,CLR,0.00,VWS V14.00,2013-01-21 14:53:00,
2013-01-21 09:58:00,19.9,2.5,30.01,WNW,286,1.0,3.0,46,0.00,,CLR,0.00,VWS V14.00,2013-01-21 14:58:00,
2013-01-21 10:03:00,20.6,3.6,30.01,SSW,192,4.0,6.0,47,0.00,,CLR,0.00,VWS V14.00,2013-01-21 15:03:00,
2013-01-21 10:08:00,19.4,1.5,30.01,SSW,201,4.0,7.0,45,0.00,,CLR,0.00,VWS V14.00,2013-01-21 15:08:00,
2013-01-21 10:13:00,20.2,1.8,30.01,WSW,255,3.0,9.0,44,0.00,,CLR,0.00,VWS V14.00,2013-01-21 15:13:00,
2013-01-21 10:18:00,20.4,2.5,30.00,SSE,162,3.0,9.0,45,0.00,,CLR,0.00,VWS V14.00,2013-01-21 15:18:00,
2013-01-21 10:23:00,20.9,2.4,30.00,NNW,347,2.0,9.0,44,0.00,,CLR,0.00,VWS V14.00,2013-01-21 15:23:00,
2013-01-21 10:28:00,21.3,2.3,30.00,West,269,6.0,6.0,43,0.00,,CLR,0.00,VWS V14.00,2013-01-21 15:28:00,
2013-01-21 10:33:00,20.9,1.4,29.99,East,80,2.0,10.0,42,0.00,,CLR,0.00,VWS V14.00,2013-01-21 15:33:00,
2013-01-21 10:38:00,21.7,2.7,29.98,WSW,240,4.0,11.0,43,0.00,,CLR,0.00,VWS V14.00,2013-01-21 15:38:00,
2013-01-21 10:43:00,21.6,1.5,29.97,SW,224,4.0,11.0,41,0.00,,CLR,0.00,VWS V14.00,2013-01-21 15:43:00,
2013-01-21 10:48:00,22.2,1.6,29.98,WNW,290,2.0,11.0,40,0.00,,CLR,0.00,VWS V14.00,2013-01-21 15:48:00,
2013-01-21 10:53:00,22.0,1.9,29.98,SW,233,4.0,13.0,41,0.00,,CLR,0.00,VWS V14.00,2013-01-21 15:53:00,
2013-01-21 10:58:00,22.5,1.8,29.98,WNW,287,0.0,5.0,40,0.00,,CLR,0.00,VWS V14.00,2013-01-21 15:58:00,
2013-01-21 11:03:00,22.3,0.6,29.98,SW,234,1.0,10.0,38,0.00,,FEW250,0.00,VWS V14.00,2013-01-21 16:03:00,
2013-01-21 11:08:00,22.8,1.6,29.98,West,269,2.0,10.0,39,0.00,,FEW250,0.00,VWS V14.00,2013-01-21 16:08:00,
2013-01-21 11:13:00,23.3,0.3,29.98,NW,315,5.0,11.0,36,0.00,,FEW250,0.00,VWS V14.00,2013-01-21 16:13:00,
2013-01-21 11:18:00,23.1,0.1,29.98,WSW,257,4.0,11.0,36,0.00,,FEW250,0.00,VWS V14.00,2013-01-21 16:18:00,
2013-01-21 11:23:00,22.7,-0.8,29.97,WSW,247,9.0,11.0,35,0.00,,FEW250,0.00,VWS V14.00,2013-01-21 16:23:00,
2013-01-21 11:28:00,22.9,-0.6,29.97,WNW,284,3.0,5.0,35,0.00,,FEW250,0.00,VWS V14.00,2013-01-21 16:28:00,
2013-01-21 11:33:00,23.3,0.3,29.98,WSW,255,1.0,7.0,36,0.00,,FEW250,0.00,VWS V14.00,2013-01-21 16:33:00,
2013-01-21 11:38:00,23.2,0.8,29.97,WSW,241,1.0,8.0,37,0.00,,FEW250,0.00,VWS V14.00,2013-01-21 16:38:00,
2013-01-21 11:42:00,23.3,-0.9,29.96,WSW,254,6.0,12.0,34,0.00,,FEW250,0.00,VWS V14.00,2013-01-21 16:42:00,
2013-01-21 11:48:00,23.5,-0.7,29.96,SW,229,4.0,12.0,34,0.00,,FEW250,0.00,VWS V14.00,2013-01-21 16:48:00,
2013-01-21 11:52:00,23.9,-1.0,29.96,SSW,213,2.0,12.0,33,0.00,,FEW250,0.00,VWS V14.00,2013-01-21 16:52:00,
2013-01-21 11:58:00,24.3,-1.3,29.95,SSW,213,4.0,4.0,32,0.00,,FEW250,0.00,VWS V14.00,2013-01-21 16:58:00,
2013-01-21 12:02:00,23.9,-1.7,29.95,West,279,4.0,10.0,32,0.00,,FEW250,0.00,VWS V14.00,2013-01-21 17:02:00,
2013-01-21 12:07:00,23.9,-1.0,29.95,NNE,19,1.0,10.0,33,0.00,,FEW250,0.00,VWS V14.00,2013-01-21 17:07:00,
2013-01-21 12:12:00,24.2,-0.7,29.95,NNW,329,2.0,10.0,33,0.00,,FEW250,0.00,VWS V14.00,2013-01-21 17:12:00,
2013-01-21 12:17:00,24.1,-1.5,29.94,WSW,251,4.0,10.0,32,0.00,,FEW250,0.00,VWS V14.00,2013-01-21 17:17:00,
2013-01-21 12:22:00,24.1,-1.5,29.94,SW,223,4.0,10.0,32,0.00,,FEW250,0.00,VWS V14.00,2013-01-21 17:22:00,
2013-01-21 12:27:00,24.1,-2.2,29.94,WSW,250,6.0,6.0,31,0.00,,FEW250,0.00,VWS V14.00,2013-01-21 17:27:00,
2013-01-21 12:32:00,24.0,-1.6,29.94,WSW,240,8.0,9.0,32,0.00,,FEW250,0.00,VWS V14.00,2013-01-21 17:32:00,
2013-01-21 12:37:00,24.1,-2.2,29.93,WSW,252,4.0,9.0,31,0.00,,FEW250,0.00,VWS V14.00,2013-01-21 17:37:00,
2013-01-21 12:42:00,24.3,-2.0,29.93,SSW,202,5.0,9.0,31,0.00,,FEW250,0.00,VWS V14.00,2013-01-21 17:42:00,
2013-01-21 12:47:00,24.8,-0.2,29.93,SSW,198,4.0,9.0,33,0.00,,FEW250,0.00,VWS V14.00,2013-01-21 17:47:00,
2013-01-21 12:52:00,24.7,-0.9,29.92,WSW,243,6.0,9.0,32,0.00,,FEW250,0.00,VWS V14.00,2013-01-21 17:52:00,
2013-01-21 12:57:00,24.7,-0.9,29.92,SSW,196,1.0,2.0,32,0.00,,FEW250,0.00,VWS V14.00,2013-01-21 17:57:00,
2013-01-21 13:02:00,25.1,-0.6,29.92,SSW,205,10.0,12.0,32,0.00,,FEW250,0.00,VWS V14.00,2013-01-21 18:02:00,
2013-01-21 13:07:00,24.6,-1.7,29.93,NW,310,5.0,12.0,31,0.00,,FEW250,0.00,VWS V14.00,2013-01-21 18:07:00,
2013-01-21 13:12:00,24.4,-1.9,29.92,West,266,5.0,12.0,31,0.00,,FEW250,0.00,VWS V14.00,2013-01-21 18:12:00,
2013-01-21 13:18:00,24.4,-1.2,29.92,WSW,240,7.0,12.0,32,0.00,,FEW250,0.00,VWS V14.00,2013-01-21 18:18:00,
2013-01-21 13:23:00,24.6,-1.0,29.92,WSW,244,0.0,12.0,32,0.00,,FEW250,0.00,VWS V14.00,2013-01-21 18:23:00,
2013-01-21 13:27:00,24.2,-1.4,29.92,South,171,2.0,2.0,32,0.00,,FEW250,0.00,VWS V14.00,2013-01-21 18:27:00,
2013-01-21 13:32:00,24.5,-1.8,29.92,SW,229,4.0,8.0,31,0.00,,FEW250,0.00,VWS V14.00,2013-01-21 18:32:00,
2013-01-21 13:37:00,25.0,0.0,29.92,SW,220,4.0,8.0,33,0.00,,FEW250,0.00,VWS V14.00,2013-01-21 18:37:00,
2013-01-21 13:42:00,24.8,-1.5,29.92,South,173,2.0,8.0,31,0.00,,FEW250,0.00,VWS V14.00,2013-01-21 18:42:00,
2013-01-21 13:47:00,24.6,-1.0,29.92,East,86,0.0,8.0,32,0.00,,FEW250,0.00,VWS V14.00,2013-01-21 18:47:00,
2013-01-21 13:52:00,24.8,-1.5,29.92,WSW,246,2.0,8.0,31,0.00,,FEW250,0.00,VWS V14.00,2013-01-21 18:52:00,
2013-01-21 13:57:00,24.7,-1.6,29.92,NW,316,3.0,4.0,31,0.00,,FEW250,0.00,VWS V14.00,2013-01-21 18:57:00,
2013-01-21 14:02:00,25.0,-1.4,29.92,SW,219,3.0,11.0,31,0.00,,SCT250,0.00,VWS V14.00,2013-01-21 19:02:00,
2013-01-21 14:07:00,25.2,-1.2,29.92,WSW,244,1.0,11.0,31,0.00,,SCT250,0.00,VWS V14.00,2013-01-21 19:07:00,
2013-01-21 14:12:00,25.6,-0.8,29.92,WNW,282,3.0,11.0,31,0.00,,SCT250,0.00,VWS V14.00,2013-01-21 19:12:00,
2013-01-21 14:17:00,25.7,-0.1,29.92,West,269,3.0,11.0,32,0.00,,SCT250,0.00,VWS V14.00,2013-01-21 19:17:00,
2013-01-21 14:22:00,25.9,0.1,29.92,South,184,4.0,11.0,32,0.00,,SCT250,0.00,VWS V14.00,2013-01-21 19:22:00,
2013-01-21 14:27:00,25.8,-0.6,29.92,SW,214,2.0,2.0,31,0.00,,SCT250,0.00,VWS V14.00,2013-01-21 19:27:00,
2013-01-21 14:32:00,25.7,0.6,29.92,SW,235,1.0,5.0,33,0.00,,SCT250,0.00,VWS V14.00,2013-01-21 19:32:00,
2013-01-21 14:37:00,25.1,-1.3,29.92,SW,228,0.0,7.0,31,0.00,,SCT250,0.00,VWS V14.00,2013-01-21 19:37:00,
2013-01-21 14:42:00,25.0,0.0,29.92,NNW,337,3.0,7.0,33,0.00,,SCT250,0.00,VWS V14.00,2013-01-21 19:42:00,
2013-01-21 14:47:00,25.2,0.2,29.92,WSW,252,5.0,8.0,33,0.00,,SCT250,0.00,VWS V14.00,2013-01-21 19:47:00,
2013-01-21 14:52:00,25.2,2.0,29.93,SW,219,2.0,8.0,36,0.00,,SCT250,0.00,VWS V14.00,2013-01-21 19:52:00,
2013-01-21 14:57:00,25.2,0.2,29.92,West,259,2.0,2.0,33,0.00,,SCT250,0.00,VWS V14.00,2013-01-21 19:57:00,
2013-01-21 15:02:00,25.2,0.8,29.92,West,273,0.0,4.0,34,0.00,,SCT250,0.00,VWS V14.00,2013-01-21 20:02:00,
2013-01-21 15:07:00,25.3,1.5,29.92,SSW,207,3.0,5.0,35,0.00,,SCT250,0.00,VWS V14.00,2013-01-21 20:07:00,
2013-01-21 15:12:00,25.1,0.7,29.92,South,185,7.0,7.0,34,0.00,,SCT250,0.00,VWS V14.00,2013-01-21 20:12:00,
2013-01-21 15:17:00,25.0,0.6,29.92,South,185,0.0,7.0,34,0.00,,SCT250,0.00,VWS V14.00,2013-01-21 20:17:00,
2013-01-21 15:22:00,25.1,1.3,29.92,SSW,196,0.0,7.0,35,0.00,,SCT250,0.00,VWS V14.00,2013-01-21 20:22:00,
2013-01-21 15:27:00,24.9,1.1,29.92,SSW,196,0.0,1.0,35,0.00,,SCT250,0.00,VWS V14.00,2013-01-21 20:27:00,
2013-01-21 15:32:00,24.9,1.1,29.92,SSW,196,0.0,4.0,35,0.00,,SCT250,0.00,VWS V14.00,2013-01-21 20:32:00,
2013-01-21 15:37:00,24.9,1.1,29.92,SSW,209,3.0,4.0,35,0.00,,SCT250,0.00,VWS V14.00,2013-01-21 20:37:00,
2013-01-21 15:42:00,24.9,1.7,29.92,SSW,209,0.0,4.0,36,0.00,,SCT250,0.00,VWS V14.00,2013-01-21 20:42:00,
2013-01-21 15:47:00,24.9,1.7,29.91,SSW,209,0.0,4.0,36,0.00,,SCT250,0.00,VWS V14.00,2013-01-21 20:47:00,
2013-01-21 15:52:00,24.9,2.3,29.91,SSW,209,0.0,4.0,37,0.00,,SCT250,0.00,VWS V14.00,2013-01-21 20:52:00,
2013-01-21 15:57:00,24.9,2.3,29.91,SSW,209,0.0,0.0,37,0.00,,SCT250,0.00,VWS V14.00,2013-01-21 20:57:00,
2013-01-21 16:02:00,24.8,2.2,29.91,SSW,209,0.0,2.0,37,0.00,,OVC250,0.00,VWS V14.00,2013-01-21 21:02:00,
2013-01-21 16:07:00,24.8,1.6,29.92,SSW,209,0.0,3.0,36,0.00,,OVC250,0.00,VWS V14.00,2013-01-21 21:07:00,
2013-01-21 16:12:00,24.7,3.8,29.92,SSW,209,1.0,3.0,40,0.00,,OVC250,0.00,VWS V14.00,2013-01-21 21:12:00,
2013-01-21 16:17:00,24.7,2.2,29.91,SSW,209,0.0,3.0,37,0.00,,OVC250,0.00,VWS V14.00,2013-01-21 21:17:00,
2013-01-21 16:22:00,24.7,2.7,29.92,SSW,209,0.0,3.0,38,0.00,,OVC250,0.00,VWS V14.00,2013-01-21 21:22:00,
2013-01-21 16:27:00,24.7,2.7,29.91,NW,320,0.0,0.0,38,0.00,,OVC250,0.00,VWS V14.00,2013-01-21 21:27:00,
2013-01-21 16:32:00,24.5,2.5,29.91,NW,320,0.0,2.0,38,0.00,,OVC250,0.00,VWS V14.00,2013-01-21 21:32:00,
2013-01-21 16:37:00,24.4,2.5,29.91,NW,320,0.0,2.0,38,0.00,,OVC250,0.00,VWS V14.00,2013-01-21 21:37:00,
2013-01-21 16:42:00,24.5,2.5,29.91,NW,320,0.0,2.0,38,0.00,,OVC250,0.00,VWS V14.00,2013-01-21 21:42:00,
2013-01-21 16:47:00,24.4,2.5,29.91,NW,320,0.0,2.0,38,0.00,,OVC250,0.00,VWS V14.00,2013-01-21 21:47:00,
2013-01-21 16:52:00,24.3,3.5,29.90,NW,320,0.0,2.0,40,0.00,,OVC250,0.00,VWS V14.00,2013-01-21 21:52:00,
2013-01-21 16:57:00,24.2,3.4,29.91,NW,320,0.0,0.0,40,0.00,,OVC250,0.00,VWS V14.00,2013-01-21 21:57:00,
2013-01-21 17:02:00,24.2,5.9,29.90,NW,320,0.0,1.0,45,0.00,,OVC250,0.00,VWS V14.00,2013-01-21 22:02:00,
2013-01-21 17:07:00,24.0,5.8,29.90,NW,320,0.0,1.0,45,0.00,,OVC250,0.00,VWS V14.00,2013-01-21 22:07:00,
2013-01-21 17:12:00,24.0,4.8,29.90,NW,320,0.0,1.0,43,0.00,,OVC250,0.00,VWS V14.00,2013-01-21 22:12:00,
2013-01-21 17:17:00,23.8,6.5,29.90,NW,320,0.0,1.0,47,0.00,,OVC250,0.00,VWS V14.00,2013-01-21 22:17:00,
2013-01-21 17:22:00,23.8,5.6,29.90,NW,320,1.0,1.0,45,0.00,,OVC250,0.00,VWS V14.00,2013-01-21 22:22:00,
2013-01-21 17:27:00,23.9,5.2,29.90,NW,320,0.0,0.0,44,0.00,,OVC250,0.00,VWS V14.00,2013-01-21 22:27:00,
2013-01-21 17:32:00,24.0,6.2,29.90,NW,320,0.0,1.0,46,0.00,,OVC250,0.00,VWS V14.00,2013-01-21 22:32:00,
2013-01-21 17:37:00,24.1,6.3,29.89,NW,320,0.0,1.0,46,0.00,,OVC250,0.00,VWS V14.00,2013-01-21 22:37:00,
2013-01-21 17:42:00,24.0,6.2,29.89,NW,320,0.0,1.0,46,0.00,,OVC250,0.00,VWS V14.00,2013-01-21 22:42:00,
2013-01-21 17:47:00,24.0,6.2,29.89,NW,320,0.0,1.0,46,0.00,,OVC250,0.00,VWS V14.00,2013-01-21 22:47:00,
2013-01-21 17:52:00,24.0,7.2,29.89,NW,320,0.0,1.0,48,0.00,,OVC250,0.00,VWS V14.00,2013-01-21 22:52:00,
2013-01-21 17:57:00,24.1,6.8,29.90,SW,223,0.0,0.0,47,0.00,,OVC250,0.00,VWS V14.00,2013-01-21 22:57:00,
2013-01-21 18:02:00,24.1,7.7,29.90,WSW,254,2.0,5.0,49,0.00,,OVC250,0.00,VWS V14.00,2013-01-21 23:02:00,
2013-01-21 18:07:00,24.2,7.3,29.90,WSW,247,1.0,5.0,48,0.00,,OVC250,0.00,VWS V14.00,2013-01-21 23:07:00,
2013-01-21 18:12:00,24.4,8.0,29.90,WSW,248,0.0,5.0,49,0.00,,OVC250,0.00,VWS V14.00,2013-01-21 23:12:00,
2013-01-21 18:17:00,24.5,8.5,29.90,West,274,0.0,5.0,50,0.00,,OVC250,0.00,VWS V14.00,2013-01-21 23:17:00,
2013-01-21 18:22:00,24.6,9.5,29.90,West,274,0.0,5.0,52,0.00,,OVC250,0.00,VWS V14.00,2013-01-21 23:22:00,
2013-01-21 18:27:00,24.7,10.0,29.90,West,274,0.0,0.0,53,0.00,,OVC250,0.00,VWS V14.00,2013-01-21 23:27:00,
2013-01-21 18:32:00,24.7,10.4,29.90,SSW,202,1.0,3.0,54,0.00,,OVC250,0.00,VWS V14.00,2013-01-21 23:32:00,
2013-01-21 18:37:00,24.7,12.8,29.90,SW,217,3.0,5.0,60,0.00,,OVC250,0.00,VWS V14.00,2013-01-21 23:37:00,
2013-01-21 18:42:00,24.6,13.4,29.91,WNW,295,0.0,5.0,62,0.00,,OVC250,0.00,VWS V14.00,2013-01-21 23:42:00,
2013-01-21 18:47:00,24.6,14.2,29.91,SW,231,1.0,5.0,64,0.00,,OVC250,0.00,VWS V14.00,2013-01-21 23:47:00,
2013-01-21 18:52:00,24.5,14.8,29.91,SW,219,2.0,5.0,66,0.00,,OVC250,0.00,VWS V14.00,2013-01-21 23:52:00,
2013-01-21 18:57:00,24.4,15.0,29.91,WSW,246,3.0,3.0,67,0.00,,OVC250,0.00,VWS V14.00,2013-01-21 23:57:00,
2013-01-21 19:02:00,24.2,15.2,29.91,West,273,4.0,5.0,68,0.00,,OVC250,0.00,VWS V14.00,2013-01-22 00:02:00,
2013-01-21 19:07:00,24.1,15.4,29.91,NE,34,2.0,5.0,69,0.00,,OVC250,0.00,VWS V14.00,2013-01-22 00:07:00,
2013-01-21 19:12:00,24.0,15.6,29.91,NE,34,2.0,5.0,70,0.00,,OVC250,0.00,VWS V14.00,2013-01-22 00:12:00,
2013-01-21 19:17:00,23.8,15.8,29.91,NE,34,0.0,5.0,71,0.00,,OVC250,0.00,VWS V14.00,2013-01-22 00:17:00,
2013-01-21 19:22:00,23.7,15.7,29.91,West,275,3.0,5.0,71,0.00,,OVC250,0.00,VWS V14.00,2013-01-22 00:22:00,
2013-01-21 19:27:00,23.5,15.8,29.91,WSW,241,0.0,0.0,72,0.00,,OVC250,0.00,VWS V14.00,2013-01-22 00:27:00,
2013-01-21 19:32:00,23.4,16.0,29.91,West,267,1.0,4.0,73,0.00,,OVC250,0.00,VWS V14.00,2013-01-22 00:32:00,
2013-01-21 19:37:00,23.4,16.4,29.92,SW,232,1.0,6.0,74,0.00,,OVC250,0.00,VWS V14.00,2013-01-22 00:37:00,
2013-01-21 19:42:00,23.3,16.6,29.92,SW,232,0.0,6.0,75,0.00,,OVC250,0.00,VWS V14.00,2013-01-22 00:42:00,
2013-01-21 19:47:00,23.3,16.9,29.92,WSW,237,0.0,6.0,76,0.00,,OVC250,0.00,VWS V14.00,2013-01-22 00:47:00,
2013-01-21 19:52:00,23.1,17.0,29.92,WSW,244,0.0,6.0,77,0.00,,OVC250,0.00,VWS V14.00,2013-01-22 00:52:00,
2013-01-21 19:57:00,23.0,17.2,29.92,West,277,0.0,0.0,78,0.00,,OVC250,0.00,VWS V14.00,2013-01-22 00:57:00,
2013-01-21 20:02:00,22.9,17.4,29.92,NNE,21,1.0,3.0,79,0.00,,OVC095,0.00,VWS V14.00,2013-01-22 01:02:00,
2013-01-21 20:07:00,22.7,17.5,29.92,WSW,246,2.0,3.0,80,0.00,,OVC095,0.00,VWS V14.00,2013-01-22 01:07:00,
2013-01-21 20:12:00,22.6,17.4,29.91,West,259,0.0,3.0,80,0.00,,OVC095,0.00,VWS V14.00,2013-01-22 01:12:00,
2013-01-21 20:17:00,22.5,17.3,29.91,West,259,2.0,3.0,80,0.00,,OVC095,0.00,VWS V14.00,2013-01-22 01:17:00,
2013-01-21 20:22:00,22.4,17.2,29.91,West,259,0.0,3.0,80,0.00,,OVC095,0.00,VWS V14.00,2013-01-22 01:22:00,
2013-01-21 20:27:00,22.3,17.4,29.91,West,259,0.0,0.0,81,0.00,,OVC095,0.00,VWS V14.00,2013-01-22 01:27:00,
2013-01-21 20:32:00,22.2,17.3,29.91,West,259,0.0,3.0,81,0.00,,OVC095,0.00,VWS V14.00,2013-01-22 01:32:00,
2013-01-21 20:37:00,22.1,17.5,29.91,West,259,0.0,4.0,82,0.00,,OVC095,0.00,VWS V14.00,2013-01-22 01:37:00,
2013-01-21 20:42:00,22.0,17.4,29.91,West,259,0.0,4.0,82,0.00,,OVC095,0.00,VWS V14.00,2013-01-22 01:42:00,
2013-01-21 20:47:00,21.9,17.0,29.91,West,259,0.0,4.0,81,0.00,,OVC095,0.00,VWS V14.00,2013-01-22 01:47:00,
2013-01-21 20:52:00,21.9,17.0,29.91,West,259,0.0,4.0,81,0.00,,OVC095,0.00,VWS V14.00,2013-01-22 01:52:00,
2013-01-21 20:57:00,21.9,17.3,29.91,West,259,0.0,0.0,82,0.00,,OVC095,0.00,VWS V14.00,2013-01-22 01:57:00,
2013-01-21 21:02:00,21.8,16.9,29.91,West,259,0.0,0.0,81,0.00,,OVC042,0.00,VWS V14.00,2013-01-22 02:02:00,
2013-01-21 21:07:00,21.8,16.9,29.91,West,259,0.0,1.0,81,0.00,,OVC042,0.00,VWS V14.00,2013-01-22 02:07:00,
2013-01-21 21:12:00,21.8,17.2,29.91,West,259,0.0,1.0,82,0.00,,OVC042,0.00,VWS V14.00,2013-01-22 02:12:00,
2013-01-21 21:17:00,21.7,17.1,29.90,West,259,0.0,1.0,82,0.00,,OVC042,0.00,VWS V14.00,2013-01-22 02:17:00,
2013-01-21 21:22:00,21.7,17.1,29.90,West,259,0.0,1.0,82,0.00,,OVC042,0.00,VWS V14.00,2013-01-22 02:22:00,
2013-01-21 21:27:00,21.7,17.1,29.90,West,259,0.0,0.0,82,0.00,,OVC042,0.00,VWS V14.00,2013-01-22 02:27:00,
2013-01-21 21:32:00,21.7,17.1,29.90,West,259,0.0,0.0,82,0.00,,OVC042,0.00,VWS V14.00,2013-01-22 02:32:00,
2013-01-21 21:37:00,21.7,17.1,29.90,West,259,0.0,0.0,82,0.00,,OVC042,0.00,VWS V14.00,2013-01-22 02:37:00,
2013-01-21 21:42:00,21.6,17.0,29.90,West,259,0.0,0.0,82,0.00,,OVC042,0.00,VWS V14.00,2013-01-22 02:42:00,
2013-01-21 21:47:00,21.6,17.0,29.89,West,259,0.0,0.0,82,0.00,,OVC042,0.00,VWS V14.00,2013-01-22 02:47:00,
2013-01-21 21:52:00,21.6,17.0,29.89,West,259,1.0,1.0,82,0.00,,OVC042,0.00,VWS V14.00,2013-01-22 02:52:00,
2013-01-21 21:57:00,21.5,16.9,29.88,West,259,0.0,0.0,82,0.00,,OVC042,0.00,VWS V14.00,2013-01-22 02:57:00,
2013-01-21 22:02:00,21.4,16.8,29.88,West,259,0.0,1.0,82,0.00,,OVC070,0.00,VWS V14.00,2013-01-22 03:02:00,
2013-01-21 22:07:00,21.4,16.5,29.88,West,259,0.0,1.0,81,0.00,,OVC070,0.00,VWS V14.00,2013-01-22 03:07:00,
2013-01-21 22:12:00,21.3,16.7,29.88,West,259,1.0,1.0,82,0.00,,OVC070,0.00,VWS V14.00,2013-01-22 03:12:00,
2013-01-21 22:17:00,21.2,16.3,29.87,West,259,0.0,1.0,81,0.00,,OVC070,0.00,VWS V14.00,2013-01-22 03:17:00,
2013-01-21 22:22:00,21.1,16.2,29.88,West,259,0.0,1.0,81,0.00,,OVC070,0.00,VWS V14.00,2013-01-22 03:22:00,
2013-01-21 22:27:00,21.0,16.1,29.87,West,259,0.0,0.0,81,0.00,,OVC070,0.00,VWS V14.00,2013-01-22 03:27:00,
2013-01-21 22:32:00,20.9,16.0,29.86,West,259,0.0,2.0,81,0.00,,OVC070,0.00,VWS V14.00,2013-01-22 03:32:00,
2013-01-21 22:37:00,20.7,15.8,29.85,NNE,30,1.0,2.0,81,0.00,,OVC070,0.00,VWS V14.00,2013-01-22 03:37:00,
2013-01-21 22:42:00,20.5,15.6,29.85,NNE,30,0.0,2.0,81,0.00,,OVC070,0.00,VWS V14.00,2013-01-22 03:42:00,
2013-01-21 22:47:00,20.4,15.5,29.84,ENE,71,4.0,5.0,81,0.00,,OVC070,0.00,VWS V14.00,2013-01-22 03:47:00,
2013-01-21 22:52:00,20.3,15.1,29.83,ENE,71,2.0,5.0,80,0.00,,OVC070,0.00,VWS V14.00,2013-01-22 03:52:00,
2013-01-21 22:57:00,20.3,15.1,29.83,North,355,0.0,5.0,80,0.00,,OVC070,0.00,VWS V14.00,2013-01-22 03:57:00,
2013-01-21 23:02:00,20.2,14.7,29.82,NE,52,0.0,6.0,79,0.00,,OVC065,0.00,VWS V14.00,2013-01-22 04:02:00,
2013-01-21 23:07:00,20.2,14.4,29.83,ENE,60,4.0,7.0,78,0.00,,OVC065,0.00,VWS V14.00,2013-01-22 04:07:00,
2013-01-21 23:12:00,20.2,14.2,29.82,ENE,71,1.0,7.0,77,0.00,,OVC065,0.00,VWS V14.00,2013-01-22 04:12:00,
2013-01-21 23:17:00,20.1,13.8,29.83,East,81,0.0,7.0,76,0.00,,OVC065,0.00,VWS V14.00,2013-01-22 04:17:00,
2013-01-21 23:22:00,20.1,13.5,29.83,East,81,0.0,7.0,75,0.00,,OVC065,0.00,VWS V14.00,2013-01-22 04:22:00,
2013-01-21 23:27:00,20.0,13.4,29.82,East,81,0.0,7.0,75,0.00,,OVC065,0.00,VWS V14.00,2013-01-22 04:27:00,
2013-01-21 23:32:00,19.9,13.3,29.82,ENE,72,2.0,3.0,75,0.00,,OVC065,0.00,VWS V14.00,2013-01-22 04:32:00,
2013-01-21 23:37:00,19.8,13.2,29.82,ENE,72,1.0,3.0,75,0.00,,OVC065,0.00,VWS V14.00,2013-01-22 04:37:00,
2013-01-21 23:42:00,19.8,13.5,29.81,East,81,3.0,5.0,76,0.00,,OVC065,0.00,VWS V14.00,2013-01-22 04:42:00,
2013-01-21 23:47:00,19.9,13.9,29.82,ENE,62,3.0,6.0,77,0.00,,OVC065,0.00,VWS V14.00,2013-01-22 04:47:00,
2013-01-21 23:52:00,19.9,14.2,29.82,East,84,5.0,7.0,78,0.00,,OVC065,0.00,VWS V14.00,2013-01-22 04:52:00,
2013-01-21 23:57:00,20.0,14.6,29.81,ENE,77,5.0,8.0,79,0.00,,OVC065,0.00,VWS V14.00,2013-01-22 04:57:00,